Time;durP1;ratioP1;P1;durP2;ratioP2;P2;SDS_P1;SDS_P2;PMS_P1;PMS_P2;Temp;Humidity;BMP_temperature;BMP_pressure;BME280_temperature;BME280_humidity;BME280_pressure;Samples;Min_cycle;Max_cycle;Signal;HPM_P1;HPM_P2
2022/06/27 00:00:29;;;;;;;1.25;0.70;;;20.50;1.00;;;;;;4975122;28;20460;-76
2022/06/27 00:02:55;;;;;;;1.08;0.70;;;20.30;1.00;;;;;;4974804;28;20038;-76
2022/06/27 00:05:20;;;;;;;1.00;0.70;;;20.30;1.00;;;;;;4975222;28;20479;-76
2022/06/27 00:07:46;;;;;;;2.75;0.60;;;20.40;1.00;;;;;;4974503;28;20058;-76
2022/06/27 00:10:12;;;;;;;0.63;0.63;;;20.40;1.00;;;;;;4975566;28;20048;-76
2022/06/27 00:12:39;;;;;;;0.70;0.70;;;20.20;1.00;;;;;;4957548;28;20041;-77
2022/06/27 00:15:06;;;;;;;0.65;0.50;;;20.10;1.00;;;;;;4974898;28;20399;-76
2022/06/27 00:17:32;;;;;;;0.68;0.60;;;20.10;1.00;;;;;;4974899;28;20019;-77
2022/06/27 00:19:58;;;;;;;0.63;0.60;;;20.10;1.00;;;;;;4974997;28;20027;-76
2022/06/27 00:22:25;;;;;;;1.10;0.82;;;20.20;1.00;;;;;;4975056;28;20089;-76
2022/06/27 00:24:50;;;;;;;2.40;0.68;;;20.00;1.00;;;;;;4974751;28;20027;-76
2022/06/27 00:27:16;;;;;;;0.70;0.70;;;19.90;1.00;;;;;;4974425;28;20043;-76
2022/06/27 00:29:42;;;;;;;0.68;0.68;;;20.00;1.00;;;;;;4974519;28;20480;-77
2022/06/27 00:32:08;;;;;;;2.45;0.90;;;19.90;1.00;;;;;;4974598;28;20035;-76
2022/06/27 00:34:34;;;;;;;2.38;0.90;;;20.00;1.00;;;;;;4974770;28;20400;-77
2022/06/27 00:37:00;;;;;;;0.90;0.70;;;20.10;1.00;;;;;;4974473;28;20054;-77
2022/06/27 00:39:26;;;;;;;1.70;0.68;;;20.00;1.00;;;;;;4974111;28;20067;-76
2022/06/27 00:41:51;;;;;;;2.50;0.80;;;19.80;1.00;;;;;;4974347;28;20462;-77
2022/06/27 00:44:40;;;;;;;1.63;0.90;;;19.80;1.00;;;;;;4974511;28;20027;-77
2022/06/27 00:47:08;;;;;;;0.98;0.80;;;19.80;1.00;;;;;;4960921;28;20042;-77
2022/06/27 00:49:35;;;;;;;0.88;0.80;;;19.90;1.00;;;;;;4974348;28;20117;-77
2022/06/27 00:52:03;;;;;;;1.63;1.08;;;20.00;1.00;;;;;;4974535;28;20022;-77
2022/06/27 00:54:29;;;;;;;2.20;0.75;;;20.00;1.00;;;;;;4956663;28;20030;-77
2022/06/27 00:56:55;;;;;;;1.20;0.70;;;19.90;1.00;;;;;;4974258;28;20022;-76
2022/06/27 00:59:21;;;;;;;1.23;0.90;;;20.00;1.00;;;;;;4974083;28;20044;-77
2022/06/27 01:01:46;;;;;;;1.63;0.60;;;20.10;1.00;;;;;;4974141;28;20154;-76
2022/06/27 01:04:12;;;;;;;1.17;0.75;;;20.00;1.00;;;;;;4974723;28;20039;-76
2022/06/27 01:06:38;;;;;;;2.55;0.60;;;19.90;1.00;;;;;;4973472;28;20022;-76
2022/06/27 01:09:04;;;;;;;1.60;0.80;;;19.90;1.00;;;;;;4973988;28;20038;-76
2022/06/27 01:11:31;;;;;;;1.50;0.80;;;19.90;1.00;;;;;;4973825;28;20022;-77
2022/06/27 01:13:56;;;;;;;1.00;0.75;;;20.10;1.00;;;;;;4973859;28;20026;-76
2022/06/27 01:16:23;;;;;;;1.00;0.70;;;20.00;1.00;;;;;;4974707;28;20546;-77
2022/06/27 01:18:49;;;;;;;1.08;0.75;;;20.00;1.00;;;;;;4973979;28;20031;-77
2022/06/27 01:21:26;;;;;;;1.02;0.80;;;20.00;1.00;;;;;;4973362;28;20054;-76
2022/06/27 01:23:52;;;;;;;0.80;0.80;;;20.10;1.00;;;;;;4973605;28;20384;-77
2022/06/27 01:26:21;;;;;;;1.63;0.70;;;20.10;1.00;;;;;;4973115;28;20046;-76
2022/06/27 01:28:46;;;;;;;2.83;0.90;;;20.20;1.00;;;;;;4973590;28;20040;-77
2022/06/27 01:31:16;;;;;;;1.08;0.80;;;20.10;1.00;;;;;;4974303;28;20030;-77
2022/06/27 01:33:42;;;;;;;0.75;0.68;;;20.00;1.00;;;;;;4973582;28;20066;-77
2022/06/27 01:38:53;;;;;;;0.95;0.70;;;19.90;1.00;;;;;;4973738;28;20048;-76
2022/06/27 01:41:19;;;;;;;1.88;1.00;;;20.00;1.00;;;;;;4973296;28;20400;-77
2022/06/27 01:43:46;;;;;;;1.10;0.70;;;20.00;1.00;;;;;;4973367;28;20023;-76
2022/06/27 01:46:12;;;;;;;0.88;0.82;;;19.90;1.00;;;;;;4974015;28;20391;-77
2022/06/27 01:48:39;;;;;;;0.95;0.77;;;19.80;1.00;;;;;;4972957;28;20090;-76
2022/06/27 01:51:08;;;;;;;1.65;0.88;;;19.80;1.00;;;;;;4972881;28;20404;-77
2022/06/27 01:53:34;;;;;;;1.02;0.90;;;19.60;1.00;;;;;;4973155;28;20481;-77
2022/06/27 01:55:59;;;;;;;1.48;1.00;;;19.50;1.00;;;;;;4973255;28;20030;-77
2022/06/27 01:58:25;;;;;;;1.85;0.90;;;19.60;1.00;;;;;;4973457;28;20031;-77
2022/06/27 02:00:51;;;;;;;1.83;0.90;;;19.50;1.00;;;;;;4973430;28;20038;-76
2022/06/27 02:03:18;;;;;;;1.25;0.90;;;19.60;1.00;;;;;;4973147;28;20030;-76
2022/06/27 02:05:45;;;;;;;1.27;1.00;;;19.70;1.00;;;;;;4972788;28;20058;-77
2022/06/27 02:08:11;;;;;;;2.97;1.02;;;19.60;1.00;;;;;;4972993;28;20570;-76
2022/06/27 02:10:36;;;;;;;1.25;1.00;;;19.50;1.00;;;;;;4973013;28;20027;-76
2022/06/27 02:13:03;;;;;;;2.15;1.10;;;19.30;1.00;;;;;;4973612;28;20023;-77
2022/06/27 02:15:31;;;;;;;2.00;1.08;;;19.40;1.00;;;;;;4973177;28;20037;-76
2022/06/27 02:17:57;;;;;;;2.40;1.10;;;19.40;1.00;;;;;;4972522;28;20058;-76
2022/06/27 02:20:23;;;;;;;1.30;1.20;;;19.50;1.00;;;;;;4973031;28;20027;-76
2022/06/27 02:22:49;;;;;;;1.75;1.20;;;19.50;1.00;;;;;;4972998;28;20030;-77
2022/06/27 02:25:15;;;;;;;1.10;1.00;;;19.40;1.00;;;;;;4973668;28;20400;-77
2022/06/27 02:27:43;;;;;;;1.10;1.10;;;19.50;1.00;;;;;;4972738;28;20034;-76
2022/06/27 02:30:09;;;;;;;2.10;1.20;;;19.40;1.00;;;;;;4972793;28;20055;-76
2022/06/27 02:32:35;;;;;;;2.03;1.00;;;19.40;1.00;;;;;;4972413;28;20023;-76
2022/06/27 02:35:01;;;;;;;2.42;1.10;;;19.40;1.00;;;;;;4972913;28;20369;-77
2022/06/27 02:37:29;;;;;;;1.77;1.10;;;19.50;1.00;;;;;;4974217;28;20034;-76
2022/06/27 02:39:55;;;;;;;1.38;1.00;;;19.50;1.00;;;;;;4976866;28;20418;-76
2022/06/27 02:42:22;;;;;;;0.90;0.90;;;19.60;1.00;;;;;;4976607;28;20046;-77
2022/06/27 02:44:49;;;;;;;2.65;1.10;;;19.50;1.00;;;;;;4976771;28;20066;-76
2022/06/27 02:47:20;;;;;;;1.13;1.00;;;19.60;1.00;;;;;;4976316;28;20039;-76
2022/06/27 02:49:45;;;;;;;1.42;0.90;;;19.50;1.00;;;;;;4959253;28;20027;-76
2022/06/27 02:52:23;;;;;;;1.20;0.95;;;19.50;1.00;;;;;;4977263;28;20027;-77
2022/06/27 02:54:59;;;;;;;1.02;0.93;;;19.30;1.00;;;;;;4976554;28;20034;-76
2022/06/27 02:57:58;;;;;;;1.85;0.90;;;19.30;1.00;;;;;;4976525;28;20034;-77
2022/06/27 03:00:27;;;;;;;1.45;1.10;;;19.30;1.00;;;;;;4976292;28;20125;-76
2022/06/27 03:02:54;;;;;;;1.77;0.90;;;19.40;1.00;;;;;;4976115;28;20027;-76
2022/06/27 03:05:20;;;;;;;1.58;1.00;;;19.50;1.00;;;;;;4976272;28;20081;-76
2022/06/27 03:07:46;;;;;;;2.05;0.88;;;19.50;1.00;;;;;;4976176;28;20534;-76
2022/06/27 03:10:12;;;;;;;0.90;0.90;;;19.40;1.00;;;;;;4976839;28;20035;-77
2022/06/27 03:12:39;;;;;;;2.38;0.90;;;19.50;1.00;;;;;;4976041;28;20027;-76
2022/06/27 03:15:06;;;;;;;4.70;1.10;;;19.60;1.00;;;;;;4976122;28;20030;-76
2022/06/27 03:17:31;;;;;;;0.88;0.82;;;19.40;1.00;;;;;;4975633;28;20023;-76
2022/06/27 03:19:57;;;;;;;1.10;0.90;;;19.40;1.00;;;;;;4975954;28;20102;-76
2022/06/27 03:22:22;;;;;;;1.73;0.82;;;19.40;1.00;;;;;;4976501;28;20480;-76
2022/06/27 03:24:48;;;;;;;1.92;0.95;;;19.20;1.00;;;;;;4975989;28;20197;-76
2022/06/27 03:27:14;;;;;;;1.00;0.80;;;19.20;1.00;;;;;;4975817;28;20043;-76
2022/06/27 03:29:40;;;;;;;2.92;1.10;;;19.20;1.00;;;;;;4975774;28;20049;-76
2022/06/27 03:32:06;;;;;;;2.50;1.10;;;19.40;1.00;;;;;;4975707;28;20056;-76
2022/06/27 03:34:32;;;;;;;3.80;0.90;;;19.40;1.00;;;;;;4975900;28;20027;-77
2022/06/27 03:36:58;;;;;;;2.38;1.02;;;19.40;1.00;;;;;;4976176;28;20041;-76
2022/06/27 03:39:24;;;;;;;1.92;1.00;;;19.40;1.00;;;;;;4975386;28;20101;-76
2022/06/27 03:41:50;;;;;;;2.40;1.00;;;19.40;1.00;;;;;;4975513;28;20037;-76
2022/06/27 03:44:17;;;;;;;2.03;1.08;;;19.40;1.00;;;;;;4975607;28;20030;-76
2022/06/27 03:46:43;;;;;;;2.78;1.10;;;19.40;1.00;;;;;;4975122;28;20042;-76
2022/06/27 03:51:54;;;;;;;1.52;1.00;;;19.30;1.00;;;;;;4975769;28;20038;-77
2022/06/27 03:54:20;;;;;;;1.42;0.90;;;19.10;1.00;;;;;;4975302;28;20096;-76
2022/06/27 03:56:46;;;;;;;2.30;1.00;;;19.20;1.00;;;;;;4975175;28;20408;-76
2022/06/27 03:59:12;;;;;;;2.30;1.00;;;19.30;1.00;;;;;;4975323;28;20042;-77
2022/06/27 04:01:38;;;;;;;2.58;0.90;;;19.40;1.00;;;;;;4974987;28;20027;-76
2022/06/27 04:04:04;;;;;;;2.55;1.27;;;19.40;1.00;;;;;;4975859;28;20030;-76
2022/06/27 04:06:30;;;;;;;2.50;1.10;;;19.50;1.00;;;;;;4975095;28;20035;-77
2022/06/27 04:08:55;;;;;;;2.75;1.13;;;19.50;1.00;;;;;;4975012;28;20035;-76
2022/06/27 04:11:21;;;;;;;1.42;1.00;;;19.50;1.00;;;;;;4957797;28;20611;-76
2022/06/27 04:13:46;;;;;;;1.88;1.10;;;19.60;1.00;;;;;;4975112;28;20117;-77
2022/06/27 04:16:12;;;;;;;2.75;1.20;;;19.40;1.00;;;;;;4975397;28;20101;-77
2022/06/27 04:18:38;;;;;;;2.28;1.10;;;19.40;1.00;;;;;;4974849;28;20049;-76
2022/06/27 04:21:04;;;;;;;1.20;1.10;;;19.60;1.00;;;;;;4974884;28;20081;-76
2022/06/27 04:23:29;;;;;;;1.63;1.00;;;19.60;1.00;;;;;;4974810;28;20560;-77
2022/06/27 04:25:55;;;;;;;2.13;1.20;;;19.50;1.00;;;;;;4974839;28;20089;-76
2022/06/27 04:28:21;;;;;;;1.65;1.15;;;19.60;1.00;;;;;;4975139;28;20089;-76
2022/06/27 04:30:47;;;;;;;2.03;1.13;;;19.60;1.00;;;;;;4974579;28;20027;-77
2022/06/27 04:33:13;;;;;;;3.78;1.10;;;19.60;1.00;;;;;;4974600;28;20042;-76
2022/06/27 04:35:40;;;;;;;1.98;1.10;;;19.70;1.00;;;;;;4974601;28;20081;-77
2022/06/27 04:38:06;;;;;;;3.60;1.30;;;19.70;1.00;;;;;;4974524;28;20041;-76
2022/06/27 04:40:32;;;;;;;2.67;1.10;;;19.70;1.00;;;;;;4974544;28;20047;-77
2022/06/27 04:42:59;;;;;;;3.63;1.20;;;19.50;1.00;;;;;;4974776;28;20038;-76
2022/06/27 04:45:26;;;;;;;1.73;0.93;;;19.60;1.00;;;;;;4974279;28;20049;-77
2022/06/27 04:47:52;;;;;;;1.27;1.00;;;19.60;1.00;;;;;;4973991;28;20122;-77
2022/06/27 04:50:19;;;;;;;2.08;1.20;;;19.70;1.00;;;;;;4974004;28;20106;-80
2022/06/27 04:52:47;;;;;;;1.55;1.10;;;19.50;1.00;;;;;;4974346;28;20026;-80
2022/06/27 04:55:13;;;;;;;1.70;1.17;;;19.60;1.00;;;;;;4974792;28;20053;-79
2022/06/27 04:57:45;;;;;;;2.65;1.20;;;19.70;1.00;;;;;;4973760;28;20033;-79
2022/06/27 05:00:13;;;;;;;1.40;1.15;;;19.70;1.00;;;;;;4973139;28;20054;-76
2022/06/27 05:02:39;;;;;;;2.45;1.30;;;19.70;1.00;;;;;;4973953;28;20022;-76
2022/06/27 05:05:06;;;;;;;2.00;1.20;;;19.80;1.00;;;;;;4974195;28;20031;-78
2022/06/27 05:07:31;;;;;;;3.30;0.95;;;19.80;1.00;;;;;;4974027;28;20046;-78
2022/06/27 05:09:57;;;;;;;6.85;1.50;;;19.90;1.00;;;;;;4974525;28;20039;-78
2022/06/27 05:12:26;;;;;;;2.28;1.10;;;19.90;1.00;;;;;;4973496;28;20029;-78
2022/06/27 05:14:53;;;;;;;2.13;1.20;;;19.90;1.00;;;;;;4973933;28;20061;-78
2022/06/27 05:17:19;;;;;;;1.60;1.10;;;20.20;1.00;;;;;;4973803;28;20023;-78
2022/06/27 05:19:45;;;;;;;2.88;1.30;;;19.80;1.00;;;;;;4973847;28;20731;-79
2022/06/27 05:22:11;;;;;;;2.13;1.20;;;19.80;1.00;;;;;;4974339;28;20026;-76
2022/06/27 05:24:37;;;;;;;2.10;1.20;;;19.90;1.00;;;;;;4973655;28;20031;-76
2022/06/27 05:27:03;;;;;;;2.47;1.35;;;19.90;1.00;;;;;;4973235;28;20035;-76
2022/06/27 05:29:29;;;;;;;1.58;1.27;;;19.70;1.00;;;;;;4973359;28;20391;-77
2022/06/27 05:31:55;;;;;;;2.10;1.10;;;19.80;1.00;;;;;;4973517;28;20030;-77
2022/06/27 05:34:21;;;;;;;1.27;1.10;;;19.70;1.00;;;;;;4974336;28;20038;-76
2022/06/27 05:36:47;;;;;;;3.05;1.30;;;19.80;1.00;;;;;;4973292;28;20078;-76
2022/06/27 05:39:14;;;;;;;2.90;1.23;;;19.90;1.00;;;;;;4973212;28;20043;-76
2022/06/27 05:41:40;;;;;;;1.63;1.02;;;20.10;1.00;;;;;;4973090;28;20029;-76
2022/06/27 05:44:06;;;;;;;3.22;1.00;;;20.30;1.00;;;;;;4973464;28;20030;-76
2022/06/27 05:46:32;;;;;;;2.38;0.98;;;20.10;1.00;;;;;;4973603;28;20023;-76
2022/06/27 05:49:00;;;;;;;1.70;0.90;;;20.10;1.00;;;;;;4973728;28;20035;-76
2022/06/27 05:51:26;;;;;;;2.35;1.10;;;20.10;1.00;;;;;;4972995;28;20038;-76
2022/06/27 05:53:52;;;;;;;1.52;0.88;;;20.00;1.00;;;;;;4973039;28;20034;-76
2022/06/27 05:56:18;;;;;;;1.30;1.20;;;20.00;1.00;;;;;;4972853;28;20168;-76
2022/06/27 05:58:44;;;;;;;2.45;1.10;;;19.90;1.00;;;;;;4973157;28;20117;-75
2022/06/27 06:01:10;;;;;;;1.48;1.15;;;20.00;1.00;;;;;;4973889;28;20026;-76
2022/06/27 06:03:37;;;;;;;2.58;1.10;;;19.90;1.00;;;;;;4972994;28;20035;-76
2022/06/27 06:06:04;;;;;;;2.88;1.13;;;20.00;1.00;;;;;;4972897;28;20431;-77
2022/06/27 06:08:31;;;;;;;2.00;1.10;;;20.00;1.00;;;;;;4973106;28;20031;-76
2022/06/27 06:10:57;;;;;;;2.03;1.05;;;20.20;1.00;;;;;;4972653;28;20015;-77
2022/06/27 06:13:24;;;;;;;1.77;1.20;;;20.20;1.00;;;;;;4973443;28;20498;-76
2022/06/27 06:15:50;;;;;;;1.48;1.20;;;20.10;1.00;;;;;;4973236;28;20117;-76
2022/06/27 06:18:17;;;;;;;2.20;1.23;;;20.00;1.00;;;;;;4972854;28;20046;-77
2022/06/27 06:20:42;;;;;;;3.47;1.42;;;20.10;1.00;;;;;;4972709;28;20037;-76
2022/06/27 06:23:08;;;;;;;2.38;0.80;;;20.00;1.00;;;;;;4973024;28;20121;-77
2022/06/27 06:25:34;;;;;;;2.17;1.10;;;20.20;1.00;;;;;;4955259;28;20034;-77
2022/06/27 06:28:01;;;;;;;1.73;0.98;;;20.20;1.00;;;;;;4973277;28;20027;-76
2022/06/27 06:30:29;;;;;;;1.25;0.98;;;20.30;1.00;;;;;;4972664;28;20447;-77
2022/06/27 06:32:56;;;;;;;1.40;1.00;;;20.40;1.00;;;;;;4972682;28;20027;-76
2022/06/27 06:35:22;;;;;;;1.98;1.20;;;20.40;1.00;;;;;;4972758;28;20027;-76
2022/06/27 06:37:48;;;;;;;1.00;0.93;;;20.50;1.00;;;;;;4972727;28;20023;-77
2022/06/27 06:40:16;;;;;;;3.03;0.93;;;20.80;1.00;;;;;;4973005;28;20054;-76
2022/06/27 06:42:42;;;;;;;1.38;1.00;;;20.50;1.00;;;;;;4972581;28;20027;-76
2022/06/27 06:45:10;;;;;;;1.55;1.05;;;20.50;1.00;;;;;;4972793;28;20042;-76
2022/06/27 06:47:46;;;;;;;2.72;0.95;;;20.30;1.00;;;;;;4972725;28;20027;-76
2022/06/27 06:50:16;;;;;;;2.95;1.10;;;20.20;1.00;;;;;;4972678;28;20065;-76
2022/06/27 06:52:42;;;;;;;1.10;1.00;;;20.00;1.00;;;;;;4972714;28;20106;-76
2022/06/27 06:55:11;;;;;;;2.78;1.00;;;19.90;1.00;;;;;;4973085;28;20055;-76
2022/06/27 06:57:40;;;;;;;3.03;1.10;;;20.10;1.00;;;;;;4972601;28;20054;-77
2022/06/27 07:00:07;;;;;;;1.88;1.13;;;20.30;1.00;;;;;;4972421;28;20081;-77
2022/06/27 07:02:35;;;;;;;3.08;1.08;;;20.10;1.00;;;;;;4972312;28;20399;-76
2022/06/27 07:05:04;;;;;;;2.10;1.30;;;20.00;1.00;;;;;;4972600;28;20043;-76
2022/06/27 07:07:32;;;;;;;1.17;1.08;;;20.10;1.00;;;;;;4972659;28;20487;-76
2022/06/27 07:09:58;;;;;;;2.17;1.20;;;20.00;1.00;;;;;;4972104;28;20502;-76
2022/06/27 07:12:25;;;;;;;2.67;1.25;;;20.00;1.00;;;;;;4972425;28;20039;-76
2022/06/27 07:14:54;;;;;;;1.20;1.10;;;20.00;1.00;;;;;;4972395;28;20022;-76
2022/06/27 07:17:24;;;;;;;2.58;1.13;;;19.90;1.00;;;;;;4972404;28;20034;-76
2022/06/27 07:19:53;;;;;;;2.55;1.23;;;19.70;1.00;;;;;;4972618;28;20045;-76
2022/06/27 07:22:20;;;;;;;1.65;1.40;;;19.70;1.00;;;;;;4968684;28;20054;-75
2022/06/27 07:24:47;;;;;;;3.05;1.20;;;19.70;1.00;;;;;;4975153;28;20035;-76
2022/06/27 07:27:15;;;;;;;1.38;1.05;;;19.70;1.00;;;;;;4975745;28;20039;-76
2022/06/27 07:29:41;;;;;;;3.22;1.33;;;19.50;1.00;;;;;;4975625;28;20026;-76
2022/06/27 07:32:08;;;;;;;1.00;1.00;;;19.50;1.00;;;;;;4975791;28;20034;-77
2022/06/27 07:34:37;;;;;;;1.50;1.20;;;19.50;1.00;;;;;;4975872;28;20031;-77
2022/06/27 07:37:04;;;;;;;2.28;1.40;;;19.60;1.00;;;;;;4973857;28;20030;-77
2022/06/27 07:39:29;;;;;;;1.38;1.27;;;19.70;1.00;;;;;;4975554;28;20035;-76
2022/06/27 07:41:55;;;;;;;3.20;1.20;;;19.70;1.00;;;;;;4975514;28;20038;-76
2022/06/27 07:44:24;;;;;;;4.07;1.30;;;19.70;1.00;;;;;;4975692;28;20023;-76
2022/06/27 07:46:51;;;;;;;4.13;1.35;;;19.90;1.00;;;;;;4975477;28;20042;-76
2022/06/27 07:49:16;;;;;;;3.83;1.40;;;19.90;1.00;;;;;;4976038;28;20026;-76
2022/06/27 07:51:42;;;;;;;1.42;1.17;;;19.80;1.00;;;;;;4975127;28;20517;-77
2022/06/27 07:54:10;;;;;;;3.40;1.90;;;20.00;1.00;;;;;;4975317;28;20038;-76
2022/06/27 07:56:37;;;;;;;1.65;1.30;;;20.00;1.00;;;;;;4975240;28;20037;-77
2022/06/27 07:59:05;;;;;;;1.85;1.30;;;20.20;1.00;;;;;;4975474;28;20110;-77
2022/06/27 08:01:31;;;;;;;2.15;1.33;;;20.30;1.00;;;;;;4975297;28;20035;-76
2022/06/27 08:03:56;;;;;;;1.63;1.30;;;20.30;1.00;;;;;;4975824;28;20480;-76
2022/06/27 08:06:25;;;;;;;3.40;1.38;;;20.30;1.00;;;;;;4974868;28;20026;-76
2022/06/27 08:09:03;;;;;;;2.78;1.45;;;20.20;1.00;;;;;;4975139;28;20039;-76
2022/06/27 08:11:34;;;;;;;5.80;1.75;;;20.20;1.00;;;;;;4975083;28;20400;-77
2022/06/27 08:14:03;;;;;;;1.95;1.30;;;20.20;1.00;;;;;;4975038;28;20085;-77
2022/06/27 08:16:30;;;;;;;2.45;1.23;;;20.10;1.00;;;;;;4975204;28;20477;-76
2022/06/27 08:18:56;;;;;;;1.40;1.30;;;20.10;1.00;;;;;;4974332;28;20504;-76
2022/06/27 08:21:27;;;;;;;2.53;1.35;;;20.20;1.00;;;;;;4974537;28;20081;-77
2022/06/27 08:23:56;;;;;;;2.53;1.30;;;20.20;1.00;;;;;;4974678;28;20027;-76
2022/06/27 08:26:23;;;;;;;2.33;1.20;;;20.10;1.00;;;;;;4974838;28;20042;-76
2022/06/27 08:28:50;;;;;;;4.13;1.48;;;20.40;1.00;;;;;;4974674;28;20106;-76
2022/06/27 08:31:17;;;;;;;1.70;1.30;;;20.50;1.00;;;;;;4975361;28;20033;-76
2022/06/27 08:33:44;;;;;;;2.60;1.30;;;20.60;1.00;;;;;;4974545;28;20031;-76
2022/06/27 08:36:11;;;;;;;1.98;1.30;;;20.50;1.00;;;;;;4973228;28;20057;-76
2022/06/27 08:38:42;;;;;;;1.73;1.13;;;20.40;1.00;;;;;;4974564;28;20110;-77
2022/06/27 08:41:09;;;;;;;1.75;1.20;;;20.40;1.00;;;;;;4974508;28;20563;-76
2022/06/27 08:43:36;;;;;;;1.27;1.17;;;20.50;1.00;;;;;;4974884;28;20389;-77
2022/06/27 08:46:02;;;;;;;1.27;0.95;;;20.50;1.00;;;;;;4975036;28;20372;-77
2022/06/27 08:48:28;;;;;;;1.55;1.20;;;20.70;1.00;;;;;;4974197;28;20046;-76
2022/06/27 08:50:57;;;;;;;1.83;1.10;;;20.70;1.00;;;;;;4974043;28;20027;-76
2022/06/27 08:53:25;;;;;;;1.23;1.13;;;20.70;1.00;;;;;;4974443;28;20106;-76
2022/06/27 08:55:51;;;;;;;2.92;1.10;;;20.90;1.00;;;;;;4974115;28;20031;-77
2022/06/27 08:58:17;;;;;;;1.65;1.10;;;21.00;1.00;;;;;;4974900;28;20110;-76
2022/06/27 09:00:45;;;;;;;1.17;1.10;;;21.10;1.00;;;;;;4973862;28;20031;-76
2022/06/27 09:03:13;;;;;;;3.33;1.25;;;21.30;1.00;;;;;;4974074;28;20046;-76
2022/06/27 09:05:39;;;;;;;1.35;1.10;;;21.30;1.00;;;;;;4973701;28;20480;-77
2022/06/27 09:08:07;;;;;;;1.48;1.20;;;21.50;1.00;;;;;;4974023;28;20042;-76
2022/06/27 09:10:42;;;;;;;3.00;1.02;;;21.50;1.00;;;;;;4974114;28;20522;-76
2022/06/27 09:13:10;;;;;;;1.15;1.05;;;21.60;1.00;;;;;;4973126;28;20038;-77
2022/06/27 09:15:48;;;;;;;1.25;1.10;;;21.90;1.00;;;;;;4973762;28;20106;-77
2022/06/27 09:18:18;;;;;;;1.35;1.00;;;22.10;1.00;;;;;;4973769;28;20081;-77
2022/06/27 09:20:49;;;;;;;1.25;1.00;;;22.10;1.00;;;;;;4973670;28;20399;-76
2022/06/27 09:23:31;;;;;;;1.48;0.95;;;22.30;1.00;;;;;;4973903;28;20066;-76
2022/06/27 09:26:07;;;;;;;1.20;1.10;;;22.70;1.00;;;;;;4958893;28;20182;-77
2022/06/27 09:28:41;;;;;;;3.22;1.10;;;22.70;1.00;;;;;;4973738;28;20121;-77
2022/06/27 09:31:13;;;;;;;1.10;0.90;;;22.70;1.00;;;;;;4972765;28;20553;-77
2022/06/27 09:33:40;;;;;;;2.25;1.20;;;22.80;1.00;;;;;;4973197;28;20503;-77
2022/06/27 09:36:13;;;;;;;2.65;1.20;;;23.00;1.00;;;;;;4973398;28;20030;-76
2022/06/27 09:38:44;;;;;;;1.13;0.80;;;22.70;1.00;;;;;;4973350;28;20030;-77
2022/06/27 09:41:12;;;;;;;0.80;0.80;;;23.00;1.00;;;;;;4973415;28;20066;-77
2022/06/27 09:43:44;;;;;;;1.05;1.00;;;22.90;1.00;;;;;;4973511;28;20431;-77
2022/06/27 09:46:13;;;;;;;1.10;1.00;;;22.80;1.00;;;;;;4972440;28;20090;-77
2022/06/27 09:48:44;;;;;;;2.25;0.80;;;23.10;1.00;;;;;;4972792;28;20042;-76
2022/06/27 09:51:16;;;;;;;2.00;0.90;;;23.30;1.00;;;;;;4973244;28;20039;-77
2022/06/27 09:53:47;;;;;;;1.02;0.80;;;23.00;1.00;;;;;;4973171;28;20085;-76
2022/06/27 09:56:15;;;;;;;1.15;0.93;;;23.50;1.00;;;;;;4973322;28;20035;-76
2022/06/27 09:58:41;;;;;;;1.42;0.80;;;24.20;1.00;;;;;;4973172;28;20510;-77
2022/06/27 10:01:08;;;;;;;0.73;0.73;;;24.70;1.00;;;;;;4973793;28;20023;-77
2022/06/27 10:03:35;;;;;;;0.93;0.90;;;24.50;1.00;;;;;;4972861;28;20060;-77
2022/06/27 10:06:01;;;;;;;0.93;0.93;;;24.90;1.00;;;;;;4972987;28;20403;-77
2022/06/27 10:08:27;;;;;;;2.15;0.90;;;25.00;1.00;;;;;;4973030;28;20038;-77
2022/06/27 10:11:08;;;;;;;1.48;1.02;;;25.60;1.00;;;;;;4973135;28;20035;-77
2022/06/27 10:13:39;;;;;;;0.88;0.75;;;26.00;1.00;;;;;;4970799;28;20054;-77
2022/06/27 10:16:15;;;;;;;2.28;1.10;;;26.40;1.00;;;;;;4971692;28;20023;-77
2022/06/27 10:19:02;;;;;;;1.60;1.10;;;26.90;1.00;;;;;;4972563;28;20027;-77
2022/06/27 10:21:33;;;;;;;1.98;1.33;;;27.50;1.00;;;;;;4972832;28;20035;-77
2022/06/27 10:24:21;;;;;;;1.40;1.30;;;27.60;1.00;;;;;;4972905;28;20027;-77
2022/06/27 10:26:53;;;;;;;1.60;1.10;;;27.30;1.00;;;;;;4972674;28;20031;-77
2022/06/27 10:29:32;;;;;;;1.35;1.20;;;26.40;1.00;;;;;;4972961;28;20074;-76
2022/06/27 10:31:59;;;;;;;1.40;1.10;;;26.70;1.00;;;;;;4958007;28;20042;-77
2022/06/27 10:34:40;;;;;;;1.27;1.10;;;26.80;1.00;;;;;;4973225;28;20030;-76
2022/06/27 10:37:28;;;;;;;1.10;1.00;;;27.00;1.00;;;;;;4971545;28;20034;-77
2022/06/27 10:40:15;;;;;;;0.80;0.80;;;27.30;1.00;;;;;;4960319;28;20404;-78
2022/06/27 10:42:50;;;;;;;0.80;0.80;;;27.30;1.00;;;;;;4866253;29;20058;-77
2022/06/27 10:45:28;;;;;;;1.10;0.88;;;27.40;1.00;;;;;;4865310;29;20046;-77
2022/06/27 10:47:58;;;;;;;1.17;0.80;;;27.30;1.00;;;;;;4865072;29;20042;-77
2022/06/27 10:50:26;;;;;;;0.98;0.70;;;27.20;1.00;;;;;;4865082;29;20044;-78
2022/06/27 10:53:18;;;;;;;1.17;0.88;;;27.30;1.00;;;;;;4860845;29;20040;-76
2022/06/27 10:55:43;;;;;;;1.27;0.90;;;28.00;1.00;;;;;;4868503;29;20049;-77
2022/06/27 10:58:29;;;;;;;0.95;0.63;;;28.10;1.00;;;;;;4863791;29;20495;-77
2022/06/27 11:01:15;;;;;;;0.80;0.80;;;28.10;1.00;;;;;;4867922;29;20050;-77
2022/06/27 11:03:41;;;;;;;0.98;0.80;;;27.40;1.00;;;;;;4868807;29;20512;-77
2022/06/27 11:06:08;;;;;;;0.70;0.70;;;27.30;1.00;;;;;;4868645;29;20068;-77
2022/06/27 11:08:37;;;;;;;1.50;0.95;;;26.70;1.00;;;;;;4868516;29;20496;-77
2022/06/27 11:11:05;;;;;;;0.50;0.45;;;26.40;1.00;;;;;;4865720;29;20129;-77
2022/06/27 11:13:42;;;;;;;1.35;0.50;;;26.70;1.00;;;;;;4864218;29;20065;-77
2022/06/27 11:16:10;;;;;;;0.40;0.40;;;26.90;1.00;;;;;;4877634;29;20479;-77
2022/06/27 11:18:52;;;;;;;1.17;0.93;;;27.20;1.00;;;;;;4871402;29;20041;-77
2022/06/27 11:21:26;;;;;;;1.20;0.90;;;26.60;1.00;;;;;;4971831;28;20026;-76
2022/06/27 11:24:05;;;;;;;1.00;0.50;;;26.60;1.00;;;;;;4975849;28;20031;-77
2022/06/27 11:26:33;;;;;;;0.70;0.70;;;26.20;1.00;;;;;;4975696;28;20027;-77
2022/06/27 11:32:06;;;;;;;0.63;0.60;;;27.00;1.00;;;;;;4976100;28;20126;-77
2022/06/27 11:34:53;;;;;;;0.55;0.55;;;27.20;1.00;;;;;;4973332;28;20161;-77
2022/06/27 11:37:21;;;;;;;0.50;0.50;;;27.20;1.00;;;;;;4958849;28;20400;-77
2022/06/27 11:40:05;;;;;;;0.57;0.55;;;27.10;1.00;;;;;;4975511;28;20047;-78
2022/06/27 11:42:34;;;;;;;0.43;0.43;;;27.00;1.00;;;;;;4975454;28;20042;-77
2022/06/27 11:45:11;;;;;;;0.80;0.60;;;26.90;1.00;;;;;;4975289;28;20166;-77
2022/06/27 11:47:46;;;;;;;0.50;0.50;;;27.00;1.00;;;;;;4975452;28;20167;-77
2022/06/27 11:50:17;;;;;;;1.52;0.60;;;27.00;1.00;;;;;;4975479;28;20027;-77
2022/06/27 11:52:48;;;;;;;0.70;0.70;;;27.20;1.00;;;;;;4975523;28;20070;-77
2022/06/27 11:55:18;;;;;;;1.27;1.17;;;27.20;1.00;;;;;;4976085;28;20025;-77
2022/06/27 11:57:49;;;;;;;1.40;0.90;;;27.00;1.00;;;;;;4975310;28;20499;-77
2022/06/27 12:00:22;;;;;;;1.10;1.00;;;26.70;1.00;;;;;;4975224;28;20034;-78
2022/06/27 12:03:02;;;;;;;1.30;1.20;;;26.60;1.00;;;;;;4975192;28;20466;-77
2022/06/27 12:05:27;;;;;;;1.27;0.93;;;26.80;1.00;;;;;;4975182;28;20023;-78
2022/06/27 12:08:06;;;;;;;2.05;0.90;;;27.00;1.00;;;;;;4975325;28;20035;-77
2022/06/27 12:13:38;;;;;;;0.82;0.77;;;26.70;1.00;;;;;;4972949;28;20058;-77
2022/06/27 12:16:06;;;;;;;0.90;0.70;;;26.50;1.00;;;;;;4975690;28;20054;-77
2022/06/27 12:18:41;;;;;;;0.85;0.70;;;26.50;1.00;;;;;;4974865;28;20038;-77
2022/06/27 12:21:07;;;;;;;1.98;0.68;;;26.50;1.00;;;;;;4974967;28;20030;-77
2022/06/27 12:23:33;;;;;;;0.70;0.70;;;26.60;1.00;;;;;;4974817;28;20372;-77
2022/06/27 12:25:59;;;;;;;0.98;0.73;;;26.70;1.00;;;;;;4974785;28;20127;-76
2022/06/27 12:28:24;;;;;;;0.90;0.70;;;26.60;1.00;;;;;;4975007;28;20050;-77
2022/06/27 12:30:50;;;;;;;0.80;0.80;;;26.50;1.00;;;;;;4974813;28;20038;-77
2022/06/27 12:33:16;;;;;;;1.33;0.80;;;26.40;1.00;;;;;;4974815;28;20035;-77
2022/06/27 12:35:41;;;;;;;1.60;0.93;;;26.10;1.00;;;;;;4974602;28;20383;-76
2022/06/27 12:38:07;;;;;;;1.50;0.93;;;26.20;1.00;;;;;;4974795;28;20031;-77
2022/06/27 12:40:34;;;;;;;0.80;0.70;;;26.00;1.00;;;;;;4974612;28;20126;-77
2022/06/27 12:43:00;;;;;;;0.80;0.70;;;25.80;1.00;;;;;;4974747;28;20105;-77
2022/06/27 12:45:26;;;;;;;1.05;0.70;;;25.70;1.00;;;;;;4974436;28;20554;-77
2022/06/27 12:47:51;;;;;;;1.42;1.00;;;25.90;1.00;;;;;;4974307;28;20042;-77
2022/06/27 12:50:17;;;;;;;2.10;0.80;;;25.70;1.00;;;;;;4974376;28;20018;-77
2022/06/27 12:52:43;;;;;;;1.13;0.73;;;25.60;1.00;;;;;;4974493;28;20030;-77
2022/06/27 12:55:09;;;;;;;1.48;0.90;;;25.70;1.00;;;;;;4975021;28;20089;-77
2022/06/27 12:57:35;;;;;;;0.82;0.80;;;25.70;1.00;;;;;;4974022;28;20035;-77
2022/06/27 13:00:01;;;;;;;0.70;0.70;;;25.80;1.00;;;;;;4974162;28;20487;-77
2022/06/27 13:02:27;;;;;;;0.98;0.65;;;25.80;1.00;;;;;;4974193;28;20118;-77
2022/06/27 13:04:52;;;;;;;2.50;0.63;;;25.40;1.00;;;;;;4958897;28;20446;-77
2022/06/27 13:07:18;;;;;;;0.70;0.70;;;25.80;1.00;;;;;;4974590;28;20086;-77
2022/06/27 13:09:44;;;;;;;1.50;0.70;;;26.10;1.00;;;;;;4974012;28;20089;-77
2022/06/27 13:12:11;;;;;;;0.60;0.60;;;26.30;1.00;;;;;;4973565;28;20054;-77
2022/06/27 13:14:37;;;;;;;0.60;0.60;;;26.50;1.00;;;;;;4973812;28;20023;-77